Terminal Aerodrome Forecast
Issued by NWS Cleveland, OH

Home | Current Version | Previous Version | Graphics & Text | Print | Product List | Glossary On
Versions: 1 2 3 4 5 6 7 8 9 10 11 12 13 14 15
000
FTUS41 KCLE 181700
TAFERI
TAF
KERI 181738Z 1818/1918 26010KT P6SM OVC015
      TEMPO 1820/1824 4SM -SN
     FM190000 28008KT 6SM -SN OVC020
      TEMPO 1900/1904 3SM -SN OVC015
     FM190600 30006KT P6SM OVC015=

USA.gov is the U.S. government's official web portal to all federal, state and local government web resources and services.